createdAt,value
2022-08-11T00:01:29.801Z,15.15
2022-08-11T00:04:05.637Z,15.37
2022-08-11T00:06:38.228Z,15.55
2022-08-11T00:09:10.250Z,15.50
2022-08-11T00:11:43.286Z,15.70
2022-08-11T00:14:37.065Z,15.90
2022-08-11T00:17:14.005Z,16.12
2022-08-11T00:20:11.712Z,16.35
2022-08-11T00:22:42.391Z,16.50
2022-08-11T00:25:23.595Z,16.64
2022-08-11T00:27:51.678Z,16.86
2022-08-11T00:30:19.917Z,16.91
2022-08-11T00:32:58.286Z,17.10
2022-08-11T00:35:50.774Z,17.25
2022-08-11T00:38:27.239Z,17.43
2022-08-11T00:40:58.009Z,17.65
2022-08-11T00:44:08.837Z,17.85
2022-08-11T00:47:12.169Z,18.01
2022-08-11T00:49:43.272Z,18.16
2022-08-11T00:52:16.816Z,18.35
2022-08-11T00:54:54.424Z,18.53
2022-08-11T00:57:55.162Z,18.83
2022-08-11T01:00:26.012Z,19.00
2022-08-11T01:03:29.777Z,19.11
2022-08-11T01:06:31.147Z,19.22
2022-08-11T01:09:22.499Z,19.34
2022-08-11T01:12:18.273Z,19.55
2022-08-11T01:15:10.375Z,19.78
2022-08-11T01:18:23.108Z,20.01
2022-08-11T01:21:17.403Z,20.22
2022-08-11T01:23:58.297Z,20.38
2022-08-11T01:26:44.797Z,20.50
2022-08-11T01:29:37.815Z,20.61
2022-08-11T01:32:14.338Z,20.70
2022-08-11T01:35:22.930Z,20.79
2022-08-11T01:38:13.352Z,20.85
2022-08-11T01:41:10.816Z,21.05
2022-08-11T01:44:24.233Z,21.19
2022-08-11T01:47:53.026Z,21.36
2022-08-11T01:50:58.431Z,21.58
2022-08-11T01:53:59.933Z,21.82
2022-08-11T01:56:43.709Z,21.99
2022-08-11T01:59:27.008Z,22.17
2022-08-11T02:03:02.415Z,22.35
2022-08-11T02:06:03.948Z,22.61
2022-08-11T02:09:08.716Z,22.83
2022-08-11T02:11:41.169Z,22.99
2022-08-11T02:14:23.308Z,23.16
2022-08-11T02:17:03.511Z,23.29
2022-08-11T02:20:08.289Z,23.42
2022-08-11T02:23:08.676Z,23.53
2022-08-11T02:25:56.901Z,23.74
2022-08-11T02:28:59.886Z,23.90
2022-08-11T02:32:24.003Z,24.10
2022-08-11T02:35:00.196Z,24.31
2022-08-11T02:37:34.570Z,24.47
2022-08-11T02:43:19.518Z,24.76
2022-08-11T02:45:55.489Z,24.86
2022-08-11T02:49:00.451Z,25.00
2022-08-11T02:51:59.597Z,25.12
2022-08-11T02:54:33.649Z,25.30
2022-08-11T02:57:28.347Z,25.28
2022-08-11T03:00:22.484Z,25.33
2022-08-11T03:03:06.654Z,25.43
2022-08-11T03:06:05.687Z,25.69
2022-08-11T03:08:43.370Z,25.87
2022-08-11T03:11:58.007Z,25.98
2022-08-11T03:15:20.260Z,25.78
2022-08-11T03:18:25.874Z,25.58
2022-08-11T03:21:39.536Z,25.66
2022-08-11T03:24:23.351Z,25.83
2022-08-11T03:27:11.973Z,26.06
2022-08-11T03:30:02.812Z,26.16
2022-08-11T03:33:27.110Z,26.30
2022-08-11T03:36:16.223Z,26.50
2022-08-11T03:39:05.668Z,26.39
2022-08-11T03:42:27.149Z,26.09
2022-08-11T03:45:15.226Z,25.99
2022-08-11T03:48:09.548Z,26.13
2022-08-11T03:50:54.996Z,26.53
2022-08-11T03:54:00.531Z,26.81
2022-08-11T03:57:11.188Z,26.98
2022-08-11T03:59:57.211Z,26.83
2022-08-11T04:02:49.592Z,26.92
2022-08-11T04:05:46.845Z,27.03
2022-08-11T04:08:54.175Z,27.09
2022-08-11T04:12:06.990Z,27.07
2022-08-11T04:15:41.311Z,27.37
2022-08-11T04:18:30.888Z,27.65
2022-08-11T04:21:10.647Z,27.61
2022-08-11T04:24:33.278Z,27.66
2022-08-11T04:26:40.973Z,27.39
2022-08-11T04:30:05.157Z,27.14
2022-08-11T04:32:49.358Z,27.04
2022-08-11T04:35:54.630Z,26.99
2022-08-11T04:38:44.157Z,27.06
2022-08-11T04:41:28.904Z,27.24
2022-08-11T04:44:41.752Z,27.67
2022-08-11T04:48:08.798Z,27.91
2022-08-11T04:51:33.598Z,28.00
2022-08-11T04:54:58.957Z,27.92
2022-08-11T04:58:20.089Z,28.14
2022-08-11T05:01:12.596Z,28.30
2022-08-11T05:04:33.737Z,28.49
2022-08-11T05:07:53.206Z,28.59
2022-08-11T05:10:43.258Z,28.62
2022-08-11T05:13:42.117Z,28.26
2022-08-11T05:16:33.531Z,27.78
2022-08-11T05:19:21.711Z,27.64
2022-08-11T05:22:15.243Z,27.55
2022-08-11T05:25:08.077Z,27.81
2022-08-11T05:28:16.062Z,27.90
2022-08-11T05:31:03.202Z,27.89
2022-08-11T05:34:06.817Z,27.73
2022-08-11T05:37:25.225Z,27.74
2022-08-11T05:40:16.856Z,27.43
2022-08-11T05:43:09.795Z,27.00
2022-08-11T05:46:04.764Z,26.67
2022-08-11T05:48:55.622Z,26.61
2022-08-11T05:51:55.403Z,26.36
2022-08-11T05:54:47.214Z,26.29
2022-08-11T05:57:50.433Z,26.12
2022-08-11T06:00:18.180Z,26.08
2022-08-11T06:03:05.875Z,26.14
2022-08-11T06:05:38.232Z,26.05
2022-08-11T06:08:14.824Z,25.96
2022-08-11T06:10:44.893Z,25.94
2022-08-11T06:13:21.162Z,25.92
2022-08-11T06:15:56.748Z,25.89
2022-08-11T06:18:26.271Z,25.97
2022-08-11T06:21:03.837Z,26.03
2022-08-11T06:23:36.273Z,26.22
2022-08-11T06:26:11.862Z,26.50
2022-08-11T06:28:42.499Z,26.58
2022-08-11T06:31:21.515Z,26.40
2022-08-11T06:34:26.652Z,26.08
2022-08-11T06:37:12.172Z,26.02
2022-08-11T06:40:12.178Z,25.88
2022-08-11T06:43:07.744Z,25.69
2022-08-11T06:45:59.536Z,25.74
2022-08-11T06:48:27.899Z,25.75
2022-08-11T06:51:13.080Z,25.72
2022-08-11T06:54:03.548Z,25.53
2022-08-11T06:57:28.360Z,25.53
2022-08-11T07:00:09.228Z,25.47
2022-08-11T07:03:03.951Z,25.48
2022-08-11T07:05:44.469Z,25.75
2022-08-11T07:09:12.207Z,26.06
2022-08-11T07:12:20.860Z,25.96
2022-08-11T07:15:20.603Z,25.89
2022-08-11T07:18:13.168Z,25.76
2022-08-11T07:21:04.377Z,25.83
2022-08-11T07:24:15.961Z,25.97
2022-08-11T07:27:10.514Z,25.74
2022-08-11T07:29:40.015Z,26.06
2022-08-11T07:32:20.776Z,26.05
2022-08-11T07:34:57.394Z,25.88
2022-08-11T07:37:27.108Z,25.92
2022-08-11T07:39:56.075Z,25.96
2022-08-11T07:42:31.389Z,26.34
2022-08-11T07:45:19.260Z,26.41
2022-08-11T07:48:07.275Z,26.28
2022-08-11T07:50:56.197Z,26.11
2022-08-11T07:53:25.191Z,26.13
2022-08-11T07:55:56.649Z,26.10
2022-08-11T07:58:52.348Z,26.00
2022-08-11T08:01:43.670Z,26.02
2022-08-11T08:04:36.702Z,26.14
2022-08-11T08:07:24.992Z,26.04
2022-08-11T08:10:15.924Z,25.82
2022-08-11T08:13:04.104Z,25.72
2022-08-11T08:15:52.316Z,25.67
2022-08-11T08:18:26.472Z,25.96
2022-08-11T08:21:12.654Z,26.28
2022-08-11T08:23:46.742Z,26.19
2022-08-11T08:26:35.867Z,26.03
2022-08-11T08:29:25.542Z,25.77
2022-08-11T08:31:57.070Z,25.72
2022-08-11T08:34:26.137Z,25.91
2022-08-11T08:36:55.515Z,26.19
2022-08-11T08:39:26.669Z,26.36
2022-08-11T08:41:57.921Z,26.51
2022-08-11T08:44:38.489Z,26.19
2022-08-11T08:47:16.882Z,25.90
2022-08-11T08:50:08.229Z,25.76
2022-08-11T08:52:44.052Z,25.70
2022-08-11T08:55:32.785Z,25.68
2022-08-11T08:58:03.741Z,25.47
2022-08-11T09:00:41.886Z,25.41
2022-08-11T09:03:38.583Z,25.44
2022-08-11T09:06:00.015Z,25.52
2022-08-11T09:08:29.365Z,25.34
2022-08-11T09:11:17.803Z,25.32
2022-08-11T09:14:04.987Z,25.26
2022-08-11T09:16:37.107Z,25.36
2022-08-11T09:19:06.066Z,25.42
2022-08-11T09:21:48.269Z,25.27
2022-08-11T09:24:38.942Z,25.11
2022-08-11T09:27:11.257Z,25.14
2022-08-11T09:29:40.006Z,25.30
2022-08-11T09:32:09.750Z,25.43
2022-08-11T09:34:39.747Z,25.50
2022-08-11T09:37:54.419Z,25.50
2022-08-11T09:40:29.850Z,25.44
2022-08-11T09:43:29.811Z,25.30
2022-08-11T09:46:00.685Z,25.11
2022-08-11T09:48:32.249Z,25.08
2022-08-11T09:51:02.605Z,25.15
2022-08-11T09:53:41.295Z,25.07
2022-08-11T09:56:37.093Z,24.95
2022-08-11T09:59:06.796Z,24.94
2022-08-11T10:01:43.215Z,24.98
2022-08-11T10:04:19.790Z,24.97
2022-08-11T10:07:05.905Z,24.79
2022-08-11T10:09:49.677Z,24.91
2022-08-11T10:12:44.122Z,24.92
2022-08-11T10:15:35.852Z,24.98
2022-08-11T10:18:53.082Z,25.04
2022-08-11T10:21:24.870Z,25.09
2022-08-11T10:24:13.042Z,25.10
2022-08-11T10:26:54.944Z,25.10
2022-08-11T10:29:49.482Z,25.04
2022-08-11T10:32:57.669Z,24.94
2022-08-11T10:35:34.125Z,24.92
2022-08-11T10:38:15.742Z,24.88
2022-08-11T10:41:09.803Z,24.85
2022-08-11T10:44:03.203Z,24.77
2022-08-11T10:46:49.981Z,24.75
2022-08-11T10:49:19.680Z,24.64
2022-08-11T10:52:08.828Z,24.68
2022-08-11T10:54:56.767Z,24.71
2022-08-11T10:57:44.543Z,24.66
2022-08-11T11:00:32.759Z,24.69
2022-08-11T11:03:22.465Z,24.70
2022-08-11T11:06:12.555Z,24.70
2022-08-11T11:09:00.143Z,24.69
2022-08-11T11:11:53.305Z,24.67
2022-08-11T11:14:46.144Z,24.56
2022-08-11T11:17:46.691Z,24.52
2022-08-11T11:20:34.771Z,24.60
2022-08-11T11:23:19.125Z,24.63
2022-08-11T11:26:27.147Z,24.63
2022-08-11T11:29:07.353Z,24.49
2022-08-11T11:32:18.948Z,24.46
2022-08-11T11:35:15.171Z,24.38
2022-08-11T11:38:04.377Z,24.33
2022-08-11T11:40:34.461Z,24.32
2022-08-11T11:43:04.012Z,24.30
2022-08-11T11:45:44.757Z,24.23
2022-08-11T11:48:14.998Z,24.13
2022-08-11T11:50:43.605Z,24.10
2022-08-11T11:53:13.540Z,24.03
2022-08-11T11:55:43.567Z,24.03
2022-08-11T11:58:30.054Z,24.08
2022-08-11T12:01:18.661Z,24.06
2022-08-11T12:03:50.201Z,24.04
2022-08-11T12:06:21.988Z,24.05
2022-08-11T12:08:53.001Z,23.97
2022-08-11T12:11:43.573Z,23.95
2022-08-11T12:14:13.189Z,23.86
2022-08-11T12:16:44.387Z,23.74
2022-08-11T12:19:18.625Z,23.77
2022-08-11T12:22:06.030Z,23.66
2022-08-11T12:24:55.109Z,23.56
2022-08-11T12:27:30.884Z,23.49
2022-08-11T12:30:10.170Z,23.22
2022-08-11T12:32:40.603Z,23.38
2022-08-11T12:35:09.441Z,23.31
2022-08-11T12:37:44.537Z,23.23
2022-08-11T12:41:12.099Z,23.23
2022-08-11T12:44:00.941Z,23.18
2022-08-11T12:46:38.283Z,23.08
2022-08-11T12:49:45.351Z,22.97
2022-08-11T12:52:28.949Z,22.95
2022-08-11T12:55:31.835Z,22.92
2022-08-11T12:58:18.307Z,22.72
2022-08-11T13:01:07.244Z,22.70
2022-08-11T13:03:59.300Z,22.55
2022-08-11T13:06:28.586Z,22.52
2022-08-11T13:09:01.082Z,22.41
2022-08-11T13:11:55.968Z,22.39
2022-08-11T13:14:30.454Z,22.29
2022-08-11T13:17:18.196Z,22.15
2022-08-11T13:19:49.643Z,22.11
2022-08-11T13:22:21.004Z,22.00
2022-08-11T13:24:50.745Z,21.87
2022-08-11T13:27:24.642Z,21.81
2022-08-11T13:30:13.702Z,21.77
2022-08-11T13:32:46.402Z,21.64
2022-08-11T13:35:16.544Z,21.52
2022-08-11T13:38:17.508Z,21.44
2022-08-11T13:40:54.831Z,21.33
2022-08-11T13:43:25.261Z,21.21
2022-08-11T13:46:14.931Z,21.27
2022-08-11T13:48:43.857Z,21.08
2022-08-11T13:51:34.642Z,20.97
2022-08-11T13:54:05.979Z,20.88
2022-08-11T13:56:36.383Z,20.77
2022-08-11T13:59:05.508Z,20.89
2022-08-11T14:02:03.269Z,20.84
2022-08-11T14:04:32.218Z,20.77
2022-08-11T14:07:04.089Z,20.70
2022-08-11T14:09:38.824Z,20.59
2022-08-11T14:12:56.142Z,20.58
2022-08-11T14:15:27.073Z,20.55
2022-08-11T14:18:19.206Z,20.48
2022-08-11T14:21:11.202Z,20.39
2022-08-11T14:26:28.752Z,20.14
2022-08-11T14:29:18.262Z,20.10
2022-08-11T14:31:54.109Z,20.03
2022-08-11T14:34:25.755Z,19.97
2022-08-11T14:36:59.358Z,19.92
2022-08-11T14:39:38.002Z,19.87
2022-08-11T14:42:26.888Z,19.87
2022-08-11T14:45:57.938Z,19.85
2022-08-11T14:48:18.464Z,19.82
2022-08-11T14:50:48.537Z,19.77
2022-08-11T14:53:18.835Z,19.72
2022-08-11T14:56:06.290Z,19.67
2022-08-11T14:58:38.659Z,19.64
2022-08-11T15:01:30.183Z,19.59
2022-08-11T15:04:27.336Z,19.60
2022-08-11T15:06:49.721Z,19.62
2022-08-11T15:09:18.720Z,19.63
2022-08-11T15:12:32.534Z,19.56
2022-08-11T15:15:17.669Z,19.52
2022-08-11T15:17:49.712Z,19.40
2022-08-11T15:20:38.331Z,19.31
2022-08-11T15:23:26.178Z,19.27
2022-08-11T15:26:04.426Z,19.17
2022-08-11T15:28:56.418Z,19.01
2022-08-11T15:31:49.541Z,18.95
2022-08-11T15:34:41.101Z,18.94
2022-08-11T15:37:31.325Z,18.92
2022-08-11T15:40:32.831Z,18.88
2022-08-11T15:43:42.004Z,18.78
2022-08-11T15:46:27.301Z,18.63
2022-08-11T15:49:03.579Z,18.58
2022-08-11T15:51:38.735Z,18.48
2022-08-11T15:54:12.097Z,18.38
2022-08-11T15:56:46.967Z,18.41
2022-08-11T15:59:41.883Z,18.36
2022-08-11T16:02:33.855Z,18.36
2022-08-11T16:05:07.456Z,18.33
2022-08-11T16:07:40.970Z,18.29
2022-08-11T16:10:22.302Z,18.20
2022-08-11T16:13:05.768Z,18.14
2022-08-11T16:15:56.526Z,18.14
2022-08-11T16:18:41.166Z,18.12
2022-08-11T16:21:26.081Z,18.07
2022-08-11T16:24:07.255Z,18.14
2022-08-11T16:27:11.277Z,18.18
2022-08-11T16:29:32.449Z,18.15
2022-08-11T16:32:18.657Z,18.14
2022-08-11T16:35:26.750Z,18.08
2022-08-11T16:38:17.204Z,17.96
2022-08-11T16:40:46.390Z,17.97
2022-08-11T16:43:43.160Z,17.87
2022-08-11T16:46:32.960Z,17.87
2022-08-11T16:49:05.748Z,17.74
2022-08-11T16:51:34.295Z,17.82
2022-08-11T16:54:05.803Z,17.79
2022-08-11T16:56:50.130Z,17.77
2022-08-11T16:59:20.805Z,17.74
2022-08-11T17:02:05.961Z,17.72
2022-08-11T17:05:12.639Z,17.65
2022-08-11T17:08:03.796Z,17.58
2022-08-11T17:11:01.694Z,17.55
2022-08-11T17:13:39.570Z,17.50
2022-08-11T17:16:14.836Z,17.44
2022-08-11T17:19:04.232Z,17.38
2022-08-11T17:22:02.692Z,17.45
2022-08-11T17:24:40.927Z,17.32
2022-08-11T17:27:10.359Z,17.35
2022-08-11T17:29:55.522Z,17.34
2022-08-11T17:32:57.130Z,17.24
2022-08-11T17:35:34.224Z,17.13
2022-08-11T17:38:16.503Z,17.02
2022-08-11T17:41:15.824Z,17.12
2022-08-11T17:44:10.982Z,17.02
2022-08-11T17:47:05.146Z,17.02
2022-08-11T17:49:39.944Z,16.99
2022-08-11T17:52:33.246Z,16.98
2022-08-11T17:55:50.937Z,16.93
2022-08-11T17:58:31.374Z,16.92
2022-08-11T18:01:03.185Z,16.97
2022-08-11T18:03:57.749Z,16.95
2022-08-11T18:06:34.385Z,16.92
2022-08-11T18:09:29.887Z,16.89
2022-08-11T18:12:18.648Z,16.87
2022-08-11T18:15:09.388Z,16.74
2022-08-11T18:17:58.395Z,16.75
2022-08-11T18:20:46.121Z,16.73
2022-08-11T18:23:45.700Z,16.74
2022-08-11T18:26:40.726Z,16.72
2022-08-11T18:29:28.160Z,16.69
2022-08-11T18:32:21.267Z,16.79
2022-08-11T18:35:13.091Z,16.78
2022-08-11T18:38:07.345Z,16.70
2022-08-11T18:40:55.655Z,16.69
2022-08-11T18:43:46.192Z,16.63
2022-08-11T18:46:36.967Z,16.64
2022-08-11T18:50:02.129Z,16.55
2022-08-11T18:52:42.081Z,16.50
2022-08-11T18:55:36.589Z,16.34
2022-08-11T18:58:28.276Z,16.22
2022-08-11T19:01:19.349Z,16.19
2022-08-11T19:04:10.881Z,16.16
2022-08-11T19:07:04.201Z,16.14
2022-08-11T19:09:51.402Z,16.04
2022-08-11T19:12:40.357Z,16.04
2022-08-11T19:15:29.319Z,15.97
2022-08-11T19:18:18.987Z,15.92
2022-08-11T19:21:07.965Z,15.88
2022-08-11T19:24:03.193Z,15.85
2022-08-11T19:26:53.233Z,15.91
2022-08-11T19:30:06.927Z,15.94
2022-08-11T19:32:54.889Z,15.94
2022-08-11T19:35:46.912Z,15.97
2022-08-11T19:38:33.752Z,15.94
2022-08-11T19:41:57.117Z,15.91
2022-08-11T19:44:28.479Z,15.96
2022-08-11T19:47:17.223Z,15.93
2022-08-11T19:50:04.893Z,15.88
2022-08-11T19:52:54.669Z,15.87
2022-08-11T19:55:43.891Z,15.60
2022-08-11T19:58:34.111Z,15.78
2022-08-11T20:01:20.921Z,15.72
2022-08-11T20:04:07.304Z,15.80
2022-08-11T20:06:57.228Z,15.70
2022-08-11T20:10:05.493Z,15.77
2022-08-11T20:12:53.125Z,15.74
2022-08-11T20:15:40.773Z,15.72
2022-08-11T20:18:31.799Z,15.58
2022-08-11T20:21:25.371Z,15.63
2022-08-11T20:24:21.085Z,15.60
2022-08-11T20:27:17.623Z,15.57
2022-08-11T20:30:08.515Z,15.53
2022-08-11T20:32:56.896Z,15.46
2022-08-11T20:35:43.989Z,15.50
2022-08-11T20:38:33.816Z,15.44
2022-08-11T20:41:22.822Z,15.27
2022-08-11T20:44:11.301Z,15.30
2022-08-11T20:46:59.282Z,15.31
2022-08-11T20:49:56.580Z,15.27
2022-08-11T20:52:48.559Z,15.24
2022-08-11T20:55:51.259Z,15.23
2022-08-11T21:01:52.333Z,15.15
2022-08-11T21:04:54.778Z,15.08
2022-08-11T21:07:55.296Z,14.97
2022-08-11T21:10:47.296Z,14.99
2022-08-11T21:13:46.146Z,14.93
2022-08-11T21:16:37.853Z,14.96
2022-08-11T21:19:59.893Z,14.90
2022-08-11T21:22:59.366Z,14.95
2022-08-11T21:26:06.128Z,14.92
2022-08-11T21:28:58.890Z,14.81
2022-08-11T21:31:48.426Z,14.90
2022-08-11T21:34:39.460Z,14.86
2022-08-11T21:37:28.892Z,14.81
2022-08-11T21:40:19.634Z,14.79
2022-08-11T21:43:10.396Z,14.74
2022-08-11T21:45:58.829Z,14.74
2022-08-11T21:48:47.711Z,14.69
2022-08-11T21:51:34.210Z,14.65
2022-08-11T21:54:23.958Z,14.63
2022-08-11T21:57:12.179Z,14.60
2022-08-11T22:00:04.699Z,14.58
2022-08-11T22:02:53.328Z,14.59
2022-08-11T22:05:43.637Z,14.47
2022-08-11T22:08:31.381Z,14.49
2022-08-11T22:11:31.962Z,14.41
2022-08-11T22:14:23.803Z,14.35
2022-08-11T22:17:10.471Z,14.40
2022-08-11T22:19:58.799Z,14.12
2022-08-11T22:22:53.472Z,14.36
2022-08-11T22:25:51.649Z,14.35
2022-08-11T22:28:41.887Z,14.24
2022-08-11T22:31:30.794Z,14.30
2022-08-11T22:34:18.836Z,14.24
2022-08-11T22:37:07.655Z,14.27
2022-08-11T22:40:01.686Z,14.23
2022-08-11T22:42:51.882Z,14.18
2022-08-11T22:45:43.208Z,14.13
2022-08-11T22:48:31.585Z,14.17
2022-08-11T22:51:21.222Z,14.15
2022-08-11T22:54:08.921Z,14.10
2022-08-11T22:56:57.211Z,14.09
2022-08-11T22:59:45.217Z,14.11
2022-08-11T23:02:32.622Z,14.11
2022-08-11T23:05:19.948Z,14.02
2022-08-11T23:08:07.508Z,14.05
2022-08-11T23:10:54.089Z,14.04
2022-08-11T23:13:43.189Z,13.99
2022-08-11T23:16:29.786Z,14.04
2022-08-11T23:20:08.344Z,14.10
2022-08-11T23:22:36.930Z,14.20
2022-08-11T23:25:34.420Z,14.26
2022-08-11T23:28:21.702Z,14.40
2022-08-11T23:31:15.143Z,14.47
2022-08-11T23:34:06.026Z,14.59
2022-08-11T23:36:52.373Z,14.65
2022-08-11T23:39:38.530Z,14.80
2022-08-11T23:42:24.981Z,14.90
2022-08-11T23:45:11.423Z,14.99
2022-08-11T23:48:01.907Z,15.11
2022-08-11T23:50:48.623Z,15.18
2022-08-11T23:53:36.965Z,15.31
2022-08-11T23:56:24.166Z,15.46
2022-08-11T23:59:16.698Z,15.50
